Time;durP1;ratioP1;P1;durP2;ratioP2;P2;SDS_P1;SDS_P2;PMS_P1;PMS_P2;Temp;Humidity;BMP_temperature;BMP_pressure;BME280_temperature;BME280_humidity;BME280_pressure;Samples;Min_cycle;Max_cycle;Signal;HPM_P1;HPM_P2
2023/08/18 00:00:23;;;;;;;11.13;9.77;;;24.00;1.00;;;;;;5006907;28;20174;-77
2023/08/18 00:02:49;;;;;;;15.57;9.87;;;24.00;1.00;;;;;;5009104;28;20189;-77
2023/08/18 00:05:14;;;;;;;15.20;9.57;;;24.00;1.00;;;;;;5009125;28;20797;-76
2023/08/18 00:07:41;;;;;;;12.13;9.60;;;24.00;1.00;;;;;;5006463;28;20621;-76
2023/08/18 00:10:08;;;;;;;13.17;10.10;;;24.00;1.00;;;;;;5009152;28;20185;-76
2023/08/18 00:12:34;;;;;;;10.70;9.60;;;24.00;1.00;;;;;;5006382;28;20472;-77
2023/08/18 00:15:00;;;;;;;13.30;10.70;;;23.90;1.00;;;;;;5008912;28;20955;-77
2023/08/18 00:17:25;;;;;;;11.33;9.40;;;23.90;1.00;;;;;;5006590;28;20471;-77
2023/08/18 00:19:51;;;;;;;15.03;11.07;;;23.90;1.00;;;;;;5006883;28;20563;-78
2023/08/18 00:22:17;;;;;;;12.60;10.70;;;23.90;1.00;;;;;;5008196;28;20186;-76
2023/08/18 00:24:42;;;;;;;12.00;9.80;;;23.90;1.00;;;;;;5008961;28;20190;-78
2023/08/18 00:27:08;;;;;;;23.83;9.50;;;23.80;1.00;;;;;;5006913;28;20683;-77
2023/08/18 00:29:33;;;;;;;13.33;10.37;;;23.90;1.00;;;;;;5005178;28;20178;-76
2023/08/18 00:31:59;;;;;;;13.40;9.97;;;23.80;1.00;;;;;;5007319;28;20201;-79
2023/08/18 00:34:25;;;;;;;10.57;9.40;;;23.90;1.00;;;;;;5007866;28;20584;-74
2023/08/18 00:36:50;;;;;;;11.27;9.13;;;23.80;1.00;;;;;;5007463;28;20213;-76
2023/08/18 00:39:16;;;;;;;18.60;9.80;;;24.20;1.00;;;;;;5007671;28;20659;-76
2023/08/18 00:41:42;;;;;;;10.17;9.10;;;23.90;1.00;;;;;;5002286;28;20188;-76
2023/08/18 00:44:07;;;;;;;15.00;9.23;;;23.90;1.00;;;;;;5006772;28;20273;-76
2023/08/18 00:46:33;;;;;;;13.33;10.10;;;23.90;1.00;;;;;;5007897;28;20702;-76
2023/08/18 00:49:00;;;;;;;11.40;9.20;;;23.90;1.00;;;;;;5006823;28;20186;-76
2023/08/18 00:51:26;;;;;;;12.87;9.73;;;23.90;1.00;;;;;;5007206;28;20571;-76
2023/08/18 00:53:51;;;;;;;12.80;9.50;;;23.90;1.00;;;;;;5005847;28;20460;-78
2023/08/18 00:56:17;;;;;;;11.10;9.37;;;23.80;1.00;;;;;;5007823;28;20213;-76
2023/08/18 00:58:43;;;;;;;12.23;9.93;;;23.90;1.00;;;;;;5005222;28;20189;-75
2023/08/18 01:01:08;;;;;;;15.67;9.90;;;23.80;1.00;;;;;;5004950;28;20260;-76
2023/08/18 01:03:34;;;;;;;12.80;9.73;;;23.70;1.00;;;;;;5005927;28;20540;-77
2023/08/18 01:06:00;;;;;;;13.97;10.33;;;23.70;1.00;;;;;;5005831;28;20209;-76
2023/08/18 01:08:26;;;;;;;13.20;10.30;;;23.70;1.00;;;;;;5007035;28;20193;-77
2023/08/18 01:11:02;;;;;;;14.70;9.70;;;23.50;1.00;;;;;;5007229;28;20190;-76
2023/08/18 01:13:41;;;;;;;11.80;10.07;;;23.60;1.00;;;;;;5010150;28;20221;-77
2023/08/18 01:16:21;;;;;;;12.40;10.07;;;23.50;1.00;;;;;;5011948;28;20472;-77
2023/08/18 01:18:47;;;;;;;13.03;9.40;;;23.50;1.00;;;;;;5010928;28;20978;-76
2023/08/18 01:21:14;;;;;;;13.80;10.10;;;23.50;1.00;;;;;;5006315;28;20448;-77
2023/08/18 01:23:41;;;;;;;14.87;9.40;;;23.50;1.00;;;;;;5010608;28;20467;-76
2023/08/18 01:26:07;;;;;;;12.93;9.60;;;23.40;1.00;;;;;;5010880;28;20994;-76
2023/08/18 01:28:34;;;;;;;12.27;10.07;;;23.40;1.00;;;;;;5008923;28;20448;-76
2023/08/18 01:31:08;;;;;;;10.70;9.43;;;23.40;1.00;;;;;;5011468;28;20186;-75
2023/08/18 01:33:53;;;;;;;13.63;9.70;;;23.40;1.00;;;;;;5009431;28;20512;-76
2023/08/18 01:36:21;;;;;;;23.23;9.47;;;23.40;1.00;;;;;;5010716;28;20915;-76
2023/08/18 01:38:50;;;;;;;12.37;8.70;;;23.30;1.00;;;;;;5007983;28;20442;-76
2023/08/18 01:41:21;;;;;;;13.07;9.10;;;23.30;1.00;;;;;;5010364;28;20429;-77
2023/08/18 01:43:47;;;;;;;11.70;9.57;;;23.30;1.00;;;;;;5009348;28;20454;-76
2023/08/18 01:46:12;;;;;;;9.80;8.67;;;23.30;1.00;;;;;;5011035;28;20550;-77
2023/08/18 01:48:38;;;;;;;12.57;9.20;;;23.20;1.00;;;;;;5010356;28;20185;-78
2023/08/18 01:51:03;;;;;;;13.20;8.70;;;23.20;1.00;;;;;;5011019;28;20193;-76
2023/08/18 01:53:29;;;;;;;12.97;8.70;;;23.20;1.00;;;;;;5008539;28;20190;-75
2023/08/18 01:55:54;;;;;;;11.20;8.43;;;23.20;1.00;;;;;;5008818;28;20208;-76
2023/08/18 01:58:20;;;;;;;11.10;9.40;;;23.20;1.00;;;;;;5008611;28;20178;-76
2023/08/18 02:00:46;;;;;;;9.73;8.00;;;23.20;1.00;;;;;;5009863;28;20205;-76
2023/08/18 02:03:11;;;;;;;14.47;8.30;;;23.20;1.00;;;;;;5009776;28;20188;-76
2023/08/18 02:05:40;;;;;;;10.20;7.97;;;23.20;1.00;;;;;;5009736;28;20503;-75
2023/08/18 02:08:06;;;;;;;9.93;7.40;;;23.10;1.00;;;;;;5010674;28;20189;-76
2023/08/18 02:10:31;;;;;;;12.27;8.10;;;23.10;1.00;;;;;;5009684;28;21020;-74
2023/08/18 02:12:57;;;;;;;10.13;8.13;;;23.20;1.00;;;;;;5008454;28;20444;-77
2023/08/18 02:15:23;;;;;;;11.00;8.77;;;23.20;1.00;;;;;;5010484;28;20209;-76
2023/08/18 02:17:48;;;;;;;10.70;8.63;;;23.10;1.00;;;;;;5010599;28;20236;-77
2023/08/18 02:20:14;;;;;;;13.37;8.40;;;23.10;1.00;;;;;;5009430;28;20192;-77
2023/08/18 02:22:39;;;;;;;11.33;8.80;;;23.10;1.00;;;;;;5009018;28;20285;-76
2023/08/18 02:25:05;;;;;;;13.10;8.77;;;23.00;1.00;;;;;;5010494;28;20185;-75
2023/08/18 02:27:31;;;;;;;13.10;9.23;;;23.10;1.00;;;;;;5009376;28;20197;-76
2023/08/18 02:29:56;;;;;;;12.37;8.70;;;23.00;1.00;;;;;;5006383;28;20193;-76
2023/08/18 02:32:22;;;;;;;13.47;8.50;;;23.00;1.00;;;;;;5008005;28;20716;-79
2023/08/18 02:34:47;;;;;;;13.07;9.10;;;23.00;1.00;;;;;;5009425;28;20186;-76
2023/08/18 02:37:13;;;;;;;12.60;8.40;;;22.90;1.00;;;;;;5009719;28;20209;-76
2023/08/18 02:39:39;;;;;;;13.33;7.90;;;22.90;1.00;;;;;;5008170;28;20181;-78
2023/08/18 02:42:05;;;;;;;12.40;8.67;;;22.90;1.00;;;;;;5010001;28;20211;-77
2023/08/18 02:44:31;;;;;;;10.97;8.20;;;22.90;1.00;;;;;;5008946;28;20174;-76
2023/08/18 02:46:57;;;;;;;12.07;7.97;;;22.90;1.00;;;;;;5009646;28;20209;-78
2023/08/18 02:49:22;;;;;;;10.70;7.97;;;22.90;1.00;;;;;;5009357;28;20490;-79
2023/08/18 02:51:48;;;;;;;11.57;7.90;;;22.80;1.00;;;;;;5009063;28;20268;-76
2023/08/18 02:54:13;;;;;;;10.20;7.67;;;22.80;1.00;;;;;;5009651;28;20186;-76
2023/08/18 02:56:39;;;;;;;10.50;7.90;;;22.80;1.00;;;;;;5008793;28;20217;-77
2023/08/18 02:59:04;;;;;;;11.00;7.57;;;22.70;1.00;;;;;;5007483;28;20178;-76
2023/08/18 03:01:30;;;;;;;12.40;8.50;;;22.70;1.00;;;;;;5008092;28;20718;-76
2023/08/18 03:03:55;;;;;;;11.97;8.37;;;22.70;1.00;;;;;;5008311;28;20687;-78
2023/08/18 03:06:21;;;;;;;10.27;8.10;;;22.70;1.00;;;;;;5008465;28;20240;-76
2023/08/18 03:08:46;;;;;;;9.97;7.70;;;22.70;1.00;;;;;;5008009;28;20207;-79
2023/08/18 03:11:12;;;;;;;13.27;7.70;;;22.60;1.00;;;;;;5008991;28;20182;-76
2023/08/18 03:13:37;;;;;;;12.43;8.33;;;22.60;1.00;;;;;;5007055;28;20660;-76
2023/08/18 03:16:04;;;;;;;15.17;8.87;;;22.60;1.00;;;;;;5006709;28;20206;-76
2023/08/18 03:18:30;;;;;;;11.37;8.00;;;22.60;1.00;;;;;;5008770;28;20213;-76
2023/08/18 03:21:03;;;;;;;10.73;8.27;;;22.50;1.00;;;;;;5007295;28;20468;-76
2023/08/18 03:23:29;;;;;;;8.73;7.30;;;22.50;1.00;;;;;;5003249;28;20178;-78
2023/08/18 03:26:00;;;;;;;11.23;8.23;;;22.50;1.00;;;;;;5008977;28;20492;-76
2023/08/18 03:28:26;;;;;;;9.77;6.67;;;22.50;1.00;;;;;;5007996;28;20473;-76
2023/08/18 03:30:51;;;;;;;10.00;7.30;;;22.50;1.00;;;;;;5008535;28;20926;-75
2023/08/18 03:33:17;;;;;;;9.73;7.03;;;22.50;1.00;;;;;;5009386;28;20214;-77
2023/08/18 03:35:48;;;;;;;12.90;7.17;;;22.60;1.00;;;;;;5007327;28;20214;-73
2023/08/18 03:38:13;;;;;;;10.23;6.57;;;22.60;1.00;;;;;;5008890;28;20204;-73
2023/08/18 03:40:39;;;;;;;10.53;7.27;;;22.50;1.00;;;;;;5007437;28;20935;-78
2023/08/18 03:43:04;;;;;;;7.90;6.43;;;22.60;1.00;;;;;;5008344;28;20185;-76
2023/08/18 03:45:30;;;;;;;9.50;6.47;;;22.60;1.00;;;;;;5007450;28;20754;-77
2023/08/18 03:47:56;;;;;;;11.37;6.50;;;22.60;1.00;;;;;;5008737;28;20216;-76
2023/08/18 03:50:22;;;;;;;10.20;7.17;;;22.50;1.00;;;;;;5002704;28;20220;-79
2023/08/18 03:52:47;;;;;;;12.57;6.83;;;22.60;1.00;;;;;;5007953;28;20198;-77
2023/08/18 03:55:13;;;;;;;9.50;6.90;;;22.50;1.00;;;;;;5009435;28;20656;-76
2023/08/18 03:57:38;;;;;;;8.83;6.77;;;22.50;1.00;;;;;;5007065;28;20233;-76
2023/08/18 04:00:04;;;;;;;9.00;7.13;;;22.50;1.00;;;;;;5005361;28;20650;-77
2023/08/18 04:02:30;;;;;;;12.93;7.20;;;22.50;1.00;;;;;;5007919;28;20603;-79
2023/08/18 04:04:55;;;;;;;9.30;6.60;;;22.50;1.00;;;;;;5007135;28;20211;-74
2023/08/18 04:07:21;;;;;;;11.10;6.47;;;22.40;1.00;;;;;;5007037;28;20562;-76
2023/08/18 04:09:46;;;;;;;8.27;7.00;;;22.40;1.00;;;;;;5007041;28;20186;-77
2023/08/18 04:12:12;;;;;;;9.93;7.40;;;22.40;1.00;;;;;;5007634;28;20224;-77
2023/08/18 04:14:37;;;;;;;11.50;7.70;;;22.40;1.00;;;;;;5007968;28;20217;-76
2023/08/18 04:17:03;;;;;;;11.30;7.13;;;22.30;1.00;;;;;;5005814;28;20217;-79
2023/08/18 04:19:28;;;;;;;11.77;7.23;;;22.30;1.00;;;;;;5007508;28;20664;-76
2023/08/18 04:21:54;;;;;;;9.57;6.63;;;22.40;1.00;;;;;;5007890;28;20202;-76
2023/08/18 04:24:20;;;;;;;9.20;6.60;;;22.30;1.00;;;;;;5007675;28;20233;-76
2023/08/18 04:26:47;;;;;;;11.43;7.07;;;22.30;1.00;;;;;;5003245;28;20767;-77
2023/08/18 04:29:12;;;;;;;9.37;6.60;;;22.20;1.00;;;;;;5005481;28;20433;-76
2023/08/18 04:31:38;;;;;;;12.00;6.67;;;22.20;1.00;;;;;;5002210;28;20444;-79
2023/08/18 04:34:03;;;;;;;9.77;6.37;;;22.20;1.00;;;;;;5005823;28;20197;-78
2023/08/18 04:36:29;;;;;;;10.10;6.60;;;22.20;1.00;;;;;;5007144;28;20424;-76
2023/08/18 04:38:56;;;;;;;10.80;6.50;;;22.30;1.00;;;;;;5006539;28;20671;-76
2023/08/18 04:41:21;;;;;;;14.47;6.23;;;22.30;1.00;;;;;;5004270;28;20178;-76
2023/08/18 04:43:49;;;;;;;8.10;6.40;;;22.30;1.00;;;;;;5007537;28;20446;-76
2023/08/18 04:46:15;;;;;;;7.03;5.83;;;22.30;1.00;;;;;;5005518;28;20208;-76
2023/08/18 04:48:41;;;;;;;10.10;6.50;;;22.30;1.00;;;;;;5007901;28;20488;-76
2023/08/18 04:51:06;;;;;;;7.70;6.00;;;22.30;1.00;;;;;;5004768;28;20245;-76
2023/08/18 04:53:32;;;;;;;8.03;5.80;;;22.30;1.00;;;;;;5007502;28;20259;-75
2023/08/18 04:56:02;;;;;;;10.87;6.27;;;22.30;1.00;;;;;;5005730;28;20216;-76
2023/08/18 04:58:28;;;;;;;8.53;5.60;;;22.70;1.00;;;;;;5006958;28;20188;-75
2023/08/18 05:00:54;;;;;;;9.37;5.73;;;22.40;1.00;;;;;;5007197;28;20523;-76
2023/08/18 05:03:19;;;;;;;8.63;5.70;;;22.40;1.00;;;;;;5007248;28;20270;-76
2023/08/18 05:06:08;;;;;;;9.50;6.30;;;22.40;1.00;;;;;;5006091;28;20588;-77
2023/08/18 05:08:35;;;;;;;8.33;5.97;;;22.40;1.00;;;;;;5007329;28;20174;-76
2023/08/18 05:11:05;;;;;;;8.43;5.50;;;22.40;1.00;;;;;;5005530;28;20436;-77
2023/08/18 05:13:31;;;;;;;9.00;6.30;;;22.40;1.00;;;;;;5006735;28;20494;-77
2023/08/18 05:15:58;;;;;;;7.60;5.67;;;22.40;1.00;;;;;;5004931;28;20468;-76
2023/08/18 05:18:23;;;;;;;8.70;5.97;;;22.40;1.00;;;;;;5005100;28;20440;-77
2023/08/18 05:20:49;;;;;;;7.83;5.40;;;22.50;1.00;;;;;;5005947;28;20454;-76
2023/08/18 05:23:17;;;;;;;7.27;5.40;;;22.50;1.00;;;;;;5006857;28;20555;-76
2023/08/18 05:25:45;;;;;;;10.07;5.33;;;22.50;1.00;;;;;;5006488;28;20202;-76
2023/08/18 05:28:10;;;;;;;8.60;6.10;;;22.50;1.00;;;;;;5004306;28;20437;-76
2023/08/18 05:30:36;;;;;;;7.90;5.10;;;22.60;1.00;;;;;;5005033;28;20433;-77
2023/08/18 05:33:01;;;;;;;9.17;5.10;;;22.50;1.00;;;;;;5005934;28;20205;-76
2023/08/18 05:35:27;;;;;;;10.27;5.70;;;22.50;1.00;;;;;;5007884;28;20193;-74
2023/08/18 05:37:52;;;;;;;8.93;5.60;;;22.70;1.00;;;;;;5008477;28;20288;-75
2023/08/18 05:40:18;;;;;;;6.50;5.10;;;22.70;1.00;;;;;;5007909;28;20194;-76
2023/08/18 05:42:43;;;;;;;8.27;5.20;;;22.70;1.00;;;;;;5008005;28;20182;-76
2023/08/18 05:45:10;;;;;;;11.70;5.47;;;22.80;1.00;;;;;;5008025;28;20194;-76
2023/08/18 05:47:36;;;;;;;8.97;4.90;;;22.80;1.00;;;;;;5008189;28;20178;-75
2023/08/18 05:50:03;;;;;;;7.43;5.13;;;22.90;1.00;;;;;;5008168;28;20523;-76
2023/08/18 05:52:28;;;;;;;7.40;4.67;;;22.90;1.00;;;;;;5012287;28;20182;-76
2023/08/18 05:54:54;;;;;;;8.80;5.20;;;22.90;1.00;;;;;;5008404;28;20455;-76
2023/08/18 05:57:19;;;;;;;8.20;5.23;;;23.00;1.00;;;;;;5006372;28;20279;-76
2023/08/18 05:59:45;;;;;;;7.73;5.00;;;23.00;1.00;;;;;;5012037;28;20273;-76
2023/08/18 06:02:10;;;;;;;8.13;5.17;;;23.10;1.00;;;;;;5009352;28;20189;-76
2023/08/18 06:04:36;;;;;;;7.60;5.30;;;23.10;1.00;;;;;;5011926;28;20198;-76
2023/08/18 06:07:01;;;;;;;6.67;5.07;;;23.20;1.00;;;;;;5072671;22;20303;-75
2023/08/18 06:09:27;;;;;;;10.27;5.03;;;23.30;1.00;;;;;;5032604;28;20538;-75
2023/08/18 06:11:52;;;;;;;10.77;4.83;;;23.30;1.00;;;;;;5029339;28;20553;-73
2023/08/18 06:14:18;;;;;;;7.50;4.80;;;23.30;1.00;;;;;;5024238;28;20723;-75
2023/08/18 06:16:43;;;;;;;7.30;4.80;;;23.50;1.00;;;;;;5028351;28;20484;-73
2023/08/18 06:19:09;;;;;;;6.10;4.67;;;23.50;1.00;;;;;;5029054;28;20181;-74
2023/08/18 06:21:34;;;;;;;5.97;5.10;;;23.60;1.00;;;;;;5029074;28;20173;-76
2023/08/18 06:24:01;;;;;;;7.47;4.40;;;23.70;1.00;;;;;;5028269;28;20641;-74
2023/08/18 06:26:27;;;;;;;10.03;4.97;;;24.00;1.00;;;;;;5030104;28;20254;-75
2023/08/18 06:28:52;;;;;;;9.20;4.60;;;24.00;1.00;;;;;;5027720;28;20543;-74
2023/08/18 06:31:18;;;;;;;7.30;4.60;;;24.10;1.00;;;;;;5030596;28;20185;-74
2023/08/18 06:33:43;;;;;;;9.03;5.57;;;24.30;1.00;;;;;;5026847;28;20256;-74
2023/08/18 06:36:09;;;;;;;10.43;4.43;;;24.40;1.00;;;;;;5027047;28;20208;-75
2023/08/18 06:38:34;;;;;;;11.70;5.00;;;24.50;1.00;;;;;;5022709;28;20208;-73
2023/08/18 06:41:00;;;;;;;8.73;4.47;;;24.70;1.00;;;;;;5029139;28;20177;-73
2023/08/18 06:43:25;;;;;;;6.13;4.93;;;24.70;1.00;;;;;;5027426;28;20177;-74
2023/08/18 06:45:51;;;;;;;6.40;4.70;;;24.70;1.00;;;;;;5028073;28;20186;-74
2023/08/18 06:48:16;;;;;;;7.93;4.53;;;24.70;1.00;;;;;;5028743;28;20201;-74
2023/08/18 06:50:42;;;;;;;7.25;4.50;;;25.00;1.00;;;;;;5018791;28;20433;-73
2023/08/18 06:53:08;;;;;;;7.80;4.70;;;25.10;1.00;;;;;;5028078;28;20228;-74
2023/08/18 06:55:33;;;;;;;8.70;4.33;;;25.20;1.00;;;;;;5025304;28;20647;-74
2023/08/18 06:57:59;;;;;;;11.90;4.43;;;25.20;1.00;;;;;;5026901;28;20209;-74
2023/08/18 07:00:24;;;;;;;11.67;5.30;;;25.20;1.00;;;;;;5026962;28;20193;-75
2023/08/18 07:02:50;;;;;;;6.83;4.73;;;25.30;1.00;;;;;;5027754;28;20792;-75
2023/08/18 07:05:17;;;;;;;10.73;4.77;;;25.30;1.00;;;;;;5028851;28;20184;-74
2023/08/18 07:07:43;;;;;;;9.00;4.50;;;25.40;1.00;;;;;;5026349;28;20315;-75
2023/08/18 07:10:09;;;;;;;7.60;4.20;;;25.60;1.00;;;;;;5028055;28;20849;-75
2023/08/18 07:12:34;;;;;;;7.87;4.40;;;25.80;1.00;;;;;;5027462;28;20188;-75
2023/08/18 07:15:00;;;;;;;6.40;4.60;;;26.00;1.00;;;;;;5027532;28;20436;-75
2023/08/18 07:17:26;;;;;;;5.73;4.30;;;26.20;1.00;;;;;;5027279;28;20209;-75
2023/08/18 07:19:51;;;;;;;6.17;4.40;;;26.00;1.00;;;;;;5028229;28;20225;-74
2023/08/18 07:22:17;;;;;;;8.30;4.50;;;26.20;1.00;;;;;;5026449;28;20173;-75
2023/08/18 07:24:42;;;;;;;8.83;4.67;;;26.40;1.00;;;;;;5028507;28;20236;-75
2023/08/18 07:27:08;;;;;;;10.93;4.67;;;26.50;1.00;;;;;;5026386;28;20695;-74
2023/08/18 07:29:34;;;;;;;6.40;4.17;;;26.70;1.00;;;;;;5028293;28;20529;-75
2023/08/18 07:32:00;;;;;;;9.23;4.70;;;26.80;1.00;;;;;;5026528;28;20191;-75
2023/08/18 07:34:26;;;;;;;7.30;3.97;;;26.80;1.00;;;;;;5027866;28;20436;-75
2023/08/18 07:36:51;;;;;;;6.77;4.30;;;26.80;1.00;;;;;;5028097;28;20463;-75
2023/08/18 07:39:18;;;;;;;8.87;4.20;;;27.00;1.00;;;;;;5027161;28;20552;-75
2023/08/18 07:41:44;;;;;;;6.13;3.90;;;27.10;1.00;;;;;;5026222;28;20174;-75
2023/08/18 07:44:10;;;;;;;6.10;4.27;;;27.20;1.00;;;;;;5026540;28;20173;-75
2023/08/18 07:46:36;;;;;;;7.20;4.30;;;27.30;1.00;;;;;;5026197;28;20466;-75
2023/08/18 07:49:03;;;;;;;6.10;3.80;;;27.60;1.00;;;;;;5027056;28;20165;-74
2023/08/18 07:51:28;;;;;;;8.53;4.07;;;27.90;1.00;;;;;;5027351;28;20276;-75
2023/08/18 07:53:54;;;;;;;7.13;4.20;;;28.10;1.00;;;;;;5026539;28;20585;-75
2023/08/18 07:56:20;;;;;;;9.23;4.37;;;;;;;;;;5023551;28;20650;-75
2023/08/18 07:58:45;;;;;;;5.27;4.07;;;28.90;1.00;;;;;;5026112;28;20185;-75
2023/08/18 08:01:11;;;;;;;6.00;4.10;;;29.50;1.00;;;;;;5028064;28;20212;-75
2023/08/18 08:03:36;;;;;;;7.20;3.73;;;30.00;1.00;;;;;;5027837;28;20227;-75
2023/08/18 08:06:04;;;;;;;6.78;4.18;;;30.80;1.00;;;;;;5027592;28;20193;-75
2023/08/18 08:08:30;;;;;;;7.78;3.97;;;31.60;1.00;;;;;;5027237;28;20209;-76
2023/08/18 08:10:56;;;;;;;6.18;4.00;;;32.50;1.00;;;;;;5025468;28;20276;-76
2023/08/18 08:13:22;;;;;;;7.97;3.90;;;33.20;1.00;;;;;;5026211;28;20201;-76
2023/08/18 08:15:47;;;;;;;8.48;4.00;;;33.70;1.00;;;;;;5028847;28;20717;-76
2023/08/18 08:18:15;;;;;;;5.93;3.88;;;33.70;1.00;;;;;;5027141;28;20200;-75
2023/08/18 08:20:41;;;;;;;5.55;3.35;;;33.70;1.00;;;;;;5027182;28;20280;-76
2023/08/18 08:23:07;;;;;;;5.95;3.45;;;33.80;1.00;;;;;;5028231;28;20361;-75
2023/08/18 08:25:34;;;;;;;10.32;3.38;;;34.20;1.00;;;;;;5020964;28;20173;-75
2023/08/18 08:27:59;;;;;;;4.60;3.35;;;34.50;1.00;;;;;;5025904;28;20384;-76
2023/08/18 08:30:26;;;;;;;9.88;3.83;;;34.50;1.00;;;;;;5026868;28;20189;-76
2023/08/18 08:32:51;;;;;;;5.13;3.45;;;34.70;1.00;;;;;;5025850;28;20608;-76
2023/08/18 08:35:17;;;;;;;7.10;3.50;;;35.00;1.00;;;;;;5025821;28;20310;-75
2023/08/18 08:37:42;;;;;;;11.40;3.50;;;35.50;1.00;;;;;;5026668;28;20221;-76
2023/08/18 08:40:17;;;;;;;7.22;4.03;;;35.70;1.00;;;;;;5026970;28;21658;-76
2023/08/18 08:42:42;;;;;;;4.70;2.95;;;36.30;1.00;;;;;;5024792;28;20184;-76
2023/08/18 08:45:08;;;;;;;6.70;3.70;;;36.70;1.00;;;;;;5025428;28;20189;-76
2023/08/18 08:47:35;;;;;;;6.53;3.70;;;37.30;1.00;;;;;;5026928;28;20261;-75
2023/08/18 08:50:03;;;;;;;6.13;3.20;;;37.90;1.00;;;;;;5025530;28;20173;-76
2023/08/18 08:52:31;;;;;;;5.05;3.15;;;38.40;1.00;;;;;;5027217;28;20192;-76
2023/08/18 08:55:00;;;;;;;5.93;3.00;;;38.90;1.00;;;;;;5022968;28;20187;-76
2023/08/18 08:57:25;;;;;;;5.43;3.10;;;38.50;1.00;;;;;;5023897;28;20209;-76
2023/08/18 08:59:52;;;;;;;5.97;3.30;;;38.20;1.00;;;;;;5026212;28;20224;-76
2023/08/18 09:02:18;;;;;;;5.90;3.20;;;38.10;1.00;;;;;;5022782;28;20484;-76
2023/08/18 09:04:43;;;;;;;5.47;3.10;;;38.70;1.00;;;;;;5024432;28;20460;-74
2023/08/18 09:07:15;;;;;;;5.53;2.97;;;39.30;1.00;;;;;;5023627;28;20255;-75
2023/08/18 09:09:41;;;;;;;5.10;3.13;;;38.90;1.00;;;;;;5018855;28;20185;-75
2023/08/18 09:12:08;;;;;;;9.40;3.00;;;38.80;1.00;;;;;;5025677;28;20199;-75
2023/08/18 09:14:35;;;;;;;6.45;3.10;;;39.20;1.00;;;;;;5026593;28;20188;-75
2023/08/18 09:17:02;;;;;;;5.78;3.20;;;39.30;1.00;;;;;;5027752;28;20524;-75
2023/08/18 09:19:28;;;;;;;7.30;3.08;;;38.70;1.00;;;;;;5025456;28;20189;-75
2023/08/18 09:22:00;;;;;;;4.75;3.00;;;38.40;1.00;;;;;;5025685;28;20238;-75
2023/08/18 09:24:29;;;;;;;7.70;2.80;;;38.50;1.00;;;;;;5025980;28;20188;-75
2023/08/18 09:27:04;;;;;;;5.90;3.00;;;38.50;1.00;;;;;;5024660;28;20205;-75
2023/08/18 09:29:30;;;;;;;4.90;3.10;;;39.40;1.00;;;;;;5025543;28;20192;-75
2023/08/18 09:31:56;;;;;;;5.10;2.95;;;40.20;1.00;;;;;;5029570;28;20311;-76
2023/08/18 09:34:22;;;;;;;4.55;2.80;;;40.40;1.00;;;;;;5026949;28;20246;-75
2023/08/18 09:36:56;;;;;;;6.20;2.95;;;40.40;1.00;;;;;;5029630;28;20771;-75
2023/08/18 09:39:24;;;;;;;5.40;2.83;;;40.30;1.00;;;;;;5027380;28;20180;-76
2023/08/18 09:41:51;;;;;;;6.80;2.92;;;40.80;1.00;;;;;;5028181;28;20581;-75
2023/08/18 09:44:17;;;;;;;4.63;2.60;;;41.30;1.00;;;;;;5030621;28;20707;-75
2023/08/18 09:46:54;;;;;;;6.30;2.97;;;41.80;1.00;;;;;;5042753;28;20714;-75
2023/08/18 09:49:20;;;;;;;6.95;2.90;;;41.50;1.00;;;;;;5027754;28;20644;-74
2023/08/18 09:51:52;;;;;;;5.70;2.65;;;41.50;1.00;;;;;;5029629;28;20247;-75
2023/08/18 09:54:19;;;;;;;4.03;2.75;;;42.00;1.00;;;;;;5023834;28;21495;-76
2023/08/18 09:56:50;;;;;;;7.75;2.65;;;42.00;1.00;;;;;;5027390;28;20291;-75
2023/08/18 09:59:22;;;;;;;4.35;2.50;;;42.30;1.00;;;;;;5026562;28;20216;-76
2023/08/18 10:01:49;;;;;;;7.28;2.90;;;42.90;1.00;;;;;;5042296;28;20220;-75
2023/08/18 10:04:16;;;;;;;6.68;2.90;;;42.60;1.00;;;;;;5027817;28;20732;-74
2023/08/18 10:06:44;;;;;;;6.20;3.17;;;43.10;1.00;;;;;;5027834;28;20687;-74
2023/08/18 10:09:10;;;;;;;9.18;3.22;;;43.00;1.00;;;;;;5025914;28;20185;-75
2023/08/18 10:11:36;;;;;;;6.70;2.70;;;42.70;1.00;;;;;;5045142;28;20211;-75
2023/08/18 10:14:02;;;;;;;4.28;2.40;;;43.10;1.00;;;;;;5029923;28;20683;-76
2023/08/18 10:16:29;;;;;;;5.18;2.75;;;43.60;1.00;;;;;;5027196;28;20220;-76
2023/08/18 10:18:55;;;;;;;4.55;2.50;;;43.50;1.00;;;;;;5028979;28;20185;-76
2023/08/18 10:21:22;;;;;;;4.88;2.63;;;43.50;1.00;;;;;;5027612;28;20177;-75
2023/08/18 10:23:48;;;;;;;3.97;2.53;;;43.80;1.00;;;;;;5043478;28;20666;-75
2023/08/18 10:26:14;;;;;;;5.40;2.78;;;44.30;1.00;;;;;;5027123;28;20215;-76
2023/08/18 10:28:40;;;;;;;4.70;2.70;;;44.30;1.00;;;;;;5028343;28;20628;-75
2023/08/18 10:31:11;;;;;;;9.18;2.90;;;44.10;1.00;;;;;;5032735;28;20192;-76
2023/08/18 10:33:43;;;;;;;5.35;2.80;;;43.70;1.00;;;;;;5031463;28;20196;-75
2023/08/18 10:36:12;;;;;;;6.35;2.70;;;44.20;1.00;;;;;;5029035;28;20372;-76
2023/08/18 10:38:41;;;;;;;5.35;2.40;;;44.40;1.00;;;;;;5028559;28;20212;-75
2023/08/18 10:41:07;;;;;;;3.38;2.35;;;44.30;1.00;;;;;;5030392;28;20792;-76
2023/08/18 10:43:42;;;;;;;5.07;2.90;;;44.70;1.00;;;;;;5028433;28;20193;-76
2023/08/18 10:46:12;;;;;;;4.95;2.70;;;45.10;1.00;;;;;;5031854;28;20172;-76
2023/08/18 10:48:38;;;;;;;6.35;2.58;;;44.80;1.00;;;;;;5030074;28;20278;-75
2023/08/18 10:51:04;;;;;;;5.50;2.50;;;44.80;1.00;;;;;;5028480;28;20220;-76
2023/08/18 10:53:36;;;;;;;6.18;2.55;;;44.80;1.00;;;;;;5030200;28;20212;-75
2023/08/18 10:56:03;;;;;;;5.60;2.40;;;44.30;1.00;;;;;;5024368;28;20181;-75
2023/08/18 10:58:29;;;;;;;7.38;2.70;;;43.90;1.00;;;;;;5028823;28;20722;-75
2023/08/18 11:00:54;;;;;;;7.43;2.97;;;44.20;1.00;;;;;;5025318;28;20185;-76
2023/08/18 11:03:20;;;;;;;5.60;2.85;;;44.50;1.00;;;;;;5029375;28;20204;-76
2023/08/18 11:05:46;;;;;;;7.47;2.45;;;44.90;1.00;;;;;;5027309;28;20294;-76
2023/08/18 11:08:12;;;;;;;4.82;2.45;;;45.00;1.00;;;;;;5026039;28;20611;-76
2023/08/18 11:10:42;;;;;;;7.22;2.75;;;45.20;1.00;;;;;;5026945;28;20471;-77
2023/08/18 11:13:22;;;;;;;13.90;2.83;;;44.70;1.00;;;;;;5022494;28;20181;-76
2023/08/18 11:15:52;;;;;;;10.60;3.00;;;44.70;1.00;;;;;;5024739;28;20212;-76
2023/08/18 11:18:19;;;;;;;6.25;2.50;;;44.60;1.00;;;;;;5028975;28;20201;-76
2023/08/18 11:20:45;;;;;;;7.25;2.47;;;44.60;1.00;;;;;;5025935;28;20243;-76
2023/08/18 11:23:11;;;;;;;5.78;2.22;;;44.30;1.00;;;;;;5028814;28;20583;-76
2023/08/18 11:25:36;;;;;;;6.78;2.70;;;44.30;1.00;;;;;;5027265;28;20598;-76
2023/08/18 11:28:02;;;;;;;8.18;2.47;;;44.10;1.00;;;;;;5026177;28;20594;-76
2023/08/18 11:30:28;;;;;;;4.20;2.20;;;45.10;1.00;;;;;;5019260;28;20185;-75
2023/08/18 11:32:54;;;;;;;5.35;2.00;;;45.30;1.00;;;;;;5039404;28;20177;-77
2023/08/18 11:35:21;;;;;;;5.20;2.42;;;45.40;1.00;;;;;;5027634;28;20193;-76
2023/08/18 11:37:48;;;;;;;7.97;2.13;;;45.90;1.00;;;;;;5026721;28;20208;-76
2023/08/18 11:40:20;;;;;;;2.92;1.80;;;45.80;1.00;;;;;;5028878;28;20200;-76
2023/08/18 11:42:47;;;;;;;4.90;2.17;;;45.60;1.00;;;;;;5025461;28;20173;-76
2023/08/18 11:45:17;;;;;;;12.93;2.70;;;45.30;1.00;;;;;;5026072;28;20498;-76
2023/08/18 11:48:03;;;;;;;10.18;2.45;;;45.20;1.00;;;;;;5025093;28;20249;-76
2023/08/18 11:50:36;;;;;;;4.40;2.22;;;44.90;1.00;;;;;;5024420;28;20203;-76
2023/08/18 11:53:03;;;;;;;7.85;2.28;;;45.60;1.00;;;;;;5023073;28;20177;-76
2023/08/18 11:55:34;;;;;;;5.93;2.53;;;46.10;1.00;;;;;;5027878;28;20196;-76
2023/08/18 11:58:04;;;;;;;4.22;2.10;;;45.40;1.00;;;;;;5027555;28;20259;-75
2023/08/18 12:00:36;;;;;;;4.80;2.45;;;45.80;1.00;;;;;;5027699;28;20544;-75
2023/08/18 12:03:03;;;;;;;3.92;2.10;;;46.40;1.00;;;;;;5028465;28;20185;-75
2023/08/18 12:05:28;;;;;;;5.35;2.35;;;46.30;1.00;;;;;;5028545;28;20258;-75
2023/08/18 12:07:54;;;;;;;7.32;2.10;;;46.30;1.00;;;;;;5027247;28;20687;-75
2023/08/18 12:10:21;;;;;;;5.22;2.13;;;47.00;1.00;;;;;;5027014;28;20204;-75
2023/08/18 12:12:55;;;;;;;3.90;2.10;;;47.00;1.00;;;;;;5028569;28;20193;-76
2023/08/18 12:15:23;;;;;;;4.35;2.15;;;47.00;1.00;;;;;;5027071;28;20185;-77
2023/08/18 12:17:48;;;;;;;7.05;2.38;;;47.00;1.00;;;;;;5028741;28;20205;-77
2023/08/18 12:20:14;;;;;;;6.03;2.28;;;46.60;1.00;;;;;;5025507;28;20178;-76
2023/08/18 12:22:40;;;;;;;3.65;2.28;;;46.00;1.00;;;;;;5029406;28;20627;-76
2023/08/18 12:25:06;;;;;;;4.10;2.00;;;45.90;1.00;;;;;;5027881;28;20272;-77
2023/08/18 12:27:34;;;;;;;7.07;2.00;;;46.20;1.00;;;;;;5019212;28;20220;-77
2023/08/18 12:30:00;;;;;;;4.82;2.00;;;46.60;1.00;;;;;;5025758;28;20189;-76
2023/08/18 12:32:26;;;;;;;3.42;2.03;;;46.60;1.00;;;;;;5025042;28;20643;-77
2023/08/18 12:34:51;;;;;;;3.65;1.70;;;46.90;1.00;;;;;;5026533;28;20202;-76
2023/08/18 12:37:21;;;;;;;8.38;2.38;;;47.00;1.00;;;;;;5027309;28;20201;-76
2023/08/18 12:39:47;;;;;;;4.80;2.15;;;47.60;1.00;;;;;;5026158;28;20185;-76
2023/08/18 12:42:13;;;;;;;5.38;2.15;;;47.90;1.00;;;;;;5028259;28;20204;-75
2023/08/18 12:44:38;;;;;;;5.25;2.20;;;47.80;1.00;;;;;;5027819;28;20662;-75
2023/08/18 12:47:04;;;;;;;4.82;2.10;;;47.30;1.00;;;;;;5025399;28;20197;-75
2023/08/18 12:49:30;;;;;;;5.05;2.38;;;47.20;1.00;;;;;;5028547;28;20836;-75